<?xml version='1.0' encoding='utf-8'?>
<gpx xmlns="http://www.topografix.com/GPX/1/1" xmlns:xsi="http://www.w3.org/2001/XMLSchema-instance" version="1.1" creator="RunGap 1138 with Barometer" xsi:schemaLocation="http://www.topografix.com/GPX/1/1 http://www.topografix.com/GPX/1/1/gpx.xsd http://www.garmin.com/xmlschemas/GpxExtensions/v3 http://www.garmin.com/xmlschemas/GpxExtensionsv3.xsd http://www.garmin.com/xmlschemas/TrackPointExtension/v1 http://www.garmin.com/xmlschemas/TrackPointExtensionv1.xsd">
  <trk>
    <name>Henne Strand</name>
    <type>Hiking</type>
    <trkseg>
      <trkpt lat="55.7372390" lon="8.1848920"><ele>9.2</ele>
        <time>2026-08-07T13:06:14Z</time>
      </trkpt><trkpt lat="55.7370730" lon="8.1850880"><ele>9.2</ele>
        <time>2026-08-07T13:06:47Z</time>
      </trkpt><trkpt lat="55.7369840" lon="8.1851470"><ele>9.2</ele>
        <time>2026-08-07T13:06:55Z</time>
      </trkpt><trkpt lat="55.7368970" lon="8.1850740"><ele>9.2</ele>
        <time>2026-08-07T13:07:02Z</time>
      </trkpt><trkpt lat="55.7368010" lon="8.1850960"><ele>9.2</ele>
        <time>2026-08-07T13:07:10Z</time>
      </trkpt><trkpt lat="55.7366040" lon="8.1851430"><ele>9.2</ele>
        <time>2026-08-07T13:07:30Z</time>
      </trkpt><trkpt lat="55.7364130" lon="8.1851810"><ele>9.2</ele>
        <time>2026-08-07T13:08:01Z</time>
      </trkpt><trkpt lat="55.7362200" lon="8.1852020"><ele>9.1</ele>
        <time>2026-08-07T13:08:26Z</time>
      </trkpt><trkpt lat="55.7360320" lon="8.1851980"><ele>9.1</ele>
        <time>2026-08-07T13:08:39Z</time>
      </trkpt><trkpt lat="55.7359400" lon="8.1852530"><ele>9.1</ele>
        <time>2026-08-07T13:08:46Z</time>
      </trkpt><trkpt lat="55.7358210" lon="8.1853410"><ele>9.0</ele>
        <time>2026-08-07T13:09:35Z</time>
      </trkpt><trkpt lat="55.7357210" lon="8.1853710"><ele>9.0</ele>
        <time>2026-08-07T13:09:43Z</time>
      </trkpt><trkpt lat="55.7355490" lon="8.1855240"><ele>9.0</ele>
        <time>2026-08-07T13:10:06Z</time>
      </trkpt><trkpt lat="55.7353910" lon="8.1857360"><ele>9.0</ele>
        <time>2026-08-07T13:10:22Z</time>
      </trkpt><trkpt lat="55.7352460" lon="8.1859580"><ele>8.9</ele>
        <time>2026-08-07T13:10:36Z</time>
      </trkpt><trkpt lat="55.7351280" lon="8.1862110"><ele>8.9</ele>
        <time>2026-08-07T13:10:53Z</time>
      </trkpt><trkpt lat="55.7350840" lon="8.1863730"><ele>8.9</ele>
        <time>2026-08-07T13:11:02Z</time>
      </trkpt><trkpt lat="55.7349870" lon="8.1866670"><ele>8.8</ele>
        <time>2026-08-07T13:11:19Z</time>
      </trkpt><trkpt lat="55.7350240" lon="8.1868260"><ele>8.8</ele>
        <time>2026-08-07T13:11:26Z</time>
      </trkpt><trkpt lat="55.7350070" lon="8.1869950"><ele>8.8</ele>
        <time>2026-08-07T13:11:34Z</time>
      </trkpt><trkpt lat="55.7349680" lon="8.1873150"><ele>8.9</ele>
        <time>2026-08-07T13:11:49Z</time>
      </trkpt><trkpt lat="55.7349440" lon="8.1876610"><ele>8.9</ele>
        <time>2026-08-07T13:12:05Z</time>
      </trkpt><trkpt lat="55.7349170" lon="8.1880010"><ele>9.0</ele>
        <time>2026-08-07T13:12:33Z</time>
      </trkpt><trkpt lat="55.7348790" lon="8.1883220"><ele>9.0</ele>
        <time>2026-08-07T13:12:54Z</time>
      </trkpt><trkpt lat="55.7348450" lon="8.1886710"><ele>9.0</ele>
        <time>2026-08-07T13:13:13Z</time>
      </trkpt><trkpt lat="55.7348130" lon="8.1890090"><ele>9.1</ele>
        <time>2026-08-07T13:13:30Z</time>
      </trkpt><trkpt lat="55.7347700" lon="8.1893210"><ele>9.1</ele>
        <time>2026-08-07T13:13:52Z</time>
      </trkpt><trkpt lat="55.7347440" lon="8.1896570"><ele>9.2</ele>
        <time>2026-08-07T13:14:13Z</time>
      </trkpt><trkpt lat="55.7346950" lon="8.1899990"><ele>9.4</ele>
        <time>2026-08-07T13:14:30Z</time>
      </trkpt><trkpt lat="55.7346730" lon="8.1903490"><ele>9.9</ele>
        <time>2026-08-07T13:14:47Z</time>
      </trkpt><trkpt lat="55.7346370" lon="8.1905150"><ele>10.2</ele>
        <time>2026-08-07T13:14:55Z</time>
      </trkpt><trkpt lat="55.7345950" lon="8.1908510"><ele>10.8</ele>
        <time>2026-08-07T13:15:11Z</time>
      </trkpt><trkpt lat="55.7346490" lon="8.1911460"><ele>11.3</ele>
        <time>2026-08-07T13:16:10Z</time>
      </trkpt><trkpt lat="55.7347290" lon="8.1912470"><ele>11.5</ele>
        <time>2026-08-07T13:16:21Z</time>
      </trkpt><trkpt lat="55.7347860" lon="8.1913750"><ele>11.8</ele>
        <time>2026-08-07T13:16:31Z</time>
      </trkpt><trkpt lat="55.7348570" lon="8.1914730"><ele>12.0</ele>
        <time>2026-08-07T13:16:41Z</time>
      </trkpt><trkpt lat="55.7349480" lon="8.1915440"><ele>12.3</ele>
        <time>2026-08-07T13:16:51Z</time>
      </trkpt><trkpt lat="55.7351250" lon="8.1916320"><ele>12.8</ele>
        <time>2026-08-07T13:17:07Z</time>
      </trkpt><trkpt lat="55.7352910" lon="8.1917560"><ele>13.3</ele>
        <time>2026-08-07T13:18:00Z</time>
      </trkpt><trkpt lat="55.7354240" lon="8.1919500"><ele>13.8</ele>
        <time>2026-08-07T13:20:22Z</time>
      </trkpt><trkpt lat="55.7354030" lon="8.1921290"><ele>14.1</ele>
        <time>2026-08-07T13:24:18Z</time>
      </trkpt><trkpt lat="55.7353400" lon="8.1924410"><ele>13.6</ele>
        <time>2026-08-07T13:25:58Z</time>
      </trkpt><trkpt lat="55.7353320" lon="8.1927370"><ele>13.2</ele>
        <time>2026-08-07T13:26:16Z</time>
      </trkpt><trkpt lat="55.7354240" lon="8.1927700"><ele>12.9</ele>
        <time>2026-08-07T13:26:34Z</time>
      </trkpt><trkpt lat="55.7356070" lon="8.1928570"><ele>12.4</ele>
        <time>2026-08-07T13:27:00Z</time>
      </trkpt><trkpt lat="55.7357940" lon="8.1929150"><ele>12.0</ele>
        <time>2026-08-07T13:27:25Z</time>
      </trkpt><trkpt lat="55.7358510" lon="8.1927740"><ele>11.7</ele>
        <time>2026-08-07T13:27:38Z</time>
      </trkpt><trkpt lat="55.7359730" lon="8.1925250"><ele>11.3</ele>
        <time>2026-08-07T13:28:07Z</time>
      </trkpt><trkpt lat="55.7360630" lon="8.1922480"><ele>10.8</ele>
        <time>2026-08-07T13:28:42Z</time>
      </trkpt><trkpt lat="55.7361800" lon="8.1920070"><ele>10.3</ele>
        <time>2026-08-07T13:29:03Z</time>
      </trkpt><trkpt lat="55.7362700" lon="8.1919260"><ele>10.1</ele>
        <time>2026-08-07T13:29:12Z</time>
      </trkpt><trkpt lat="55.7364360" lon="8.1917410"><ele>9.6</ele>
        <time>2026-08-07T13:29:31Z</time>
      </trkpt><trkpt lat="55.7366100" lon="8.1915700"><ele>9.6</ele>
        <time>2026-08-07T13:30:00Z</time>
      </trkpt><trkpt lat="55.7367510" lon="8.1913500"><ele>9.6</ele>
        <time>2026-08-07T13:30:17Z</time>
      </trkpt><trkpt lat="55.7369030" lon="8.1913140"><ele>9.6</ele>
        <time>2026-08-07T13:30:38Z</time>
      </trkpt><trkpt lat="55.7369870" lon="8.1914070"><ele>9.7</ele>
        <time>2026-08-07T13:30:46Z</time>
      </trkpt><trkpt lat="55.7370820" lon="8.1913920"><ele>9.7</ele>
        <time>2026-08-07T13:30:54Z</time>
      </trkpt><trkpt lat="55.7372630" lon="8.1913230"><ele>9.7</ele>
        <time>2026-08-07T13:31:15Z</time>
      </trkpt><trkpt lat="55.7373540" lon="8.1913480"><ele>9.7</ele>
        <time>2026-08-07T13:31:24Z</time>
      </trkpt><trkpt lat="55.7375420" lon="8.1913970"><ele>9.7</ele>
        <time>2026-08-07T13:31:45Z</time>
      </trkpt><trkpt lat="55.7377200" lon="8.1914680"><ele>9.8</ele>
        <time>2026-08-07T13:32:02Z</time>
      </trkpt><trkpt lat="55.7379050" lon="8.1915200"><ele>9.8</ele>
        <time>2026-08-07T13:32:22Z</time>
      </trkpt><trkpt lat="55.7380890" lon="8.1915630"><ele>9.8</ele>
        <time>2026-08-07T13:32:45Z</time>
      </trkpt><trkpt lat="55.7382760" lon="8.1915480"><ele>9.8</ele>
        <time>2026-08-07T13:33:03Z</time>
      </trkpt><trkpt lat="55.7384640" lon="8.1915940"><ele>9.7</ele>
        <time>2026-08-07T13:33:19Z</time>
      </trkpt><trkpt lat="55.7386470" lon="8.1916900"><ele>9.7</ele>
        <time>2026-08-07T13:33:36Z</time>
      </trkpt><trkpt lat="55.7388420" lon="8.1917210"><ele>9.7</ele>
        <time>2026-08-07T13:33:53Z</time>
      </trkpt><trkpt lat="55.7389360" lon="8.1916910"><ele>9.7</ele>
        <time>2026-08-07T13:34:02Z</time>
      </trkpt><trkpt lat="55.7390060" lon="8.1915820"><ele>9.7</ele>
        <time>2026-08-07T13:34:11Z</time>
      </trkpt><trkpt lat="55.7390300" lon="8.1913950"><ele>9.7</ele>
        <time>2026-08-07T13:34:36Z</time>
      </trkpt><trkpt lat="55.7390900" lon="8.1910810"><ele>9.6</ele>
        <time>2026-08-07T13:34:55Z</time>
      </trkpt><trkpt lat="55.7391530" lon="8.1907730"><ele>9.6</ele>
        <time>2026-08-07T13:35:11Z</time>
      </trkpt><trkpt lat="55.7392040" lon="8.1906280"><ele>9.6</ele>
        <time>2026-08-07T13:35:21Z</time>
      </trkpt><trkpt lat="55.7392770" lon="8.1905210"><ele>9.6</ele>
        <time>2026-08-07T13:35:29Z</time>
      </trkpt><trkpt lat="55.7393820" lon="8.1902570"><ele>9.5</ele>
        <time>2026-08-07T13:35:48Z</time>
      </trkpt><trkpt lat="55.7394380" lon="8.1899540"><ele>9.5</ele>
        <time>2026-08-07T13:36:17Z</time>
      </trkpt><trkpt lat="55.7395120" lon="8.1896470"><ele>9.4</ele>
        <time>2026-08-07T13:36:41Z</time>
      </trkpt><trkpt lat="55.7396010" lon="8.1893510"><ele>9.3</ele>
        <time>2026-08-07T13:37:03Z</time>
      </trkpt><trkpt lat="55.7396800" lon="8.1890450"><ele>9.3</ele>
        <time>2026-08-07T13:37:29Z</time>
      </trkpt><trkpt lat="55.7397780" lon="8.1887570"><ele>9.2</ele>
        <time>2026-08-07T13:37:48Z</time>
      </trkpt><trkpt lat="55.7398940" lon="8.1885060"><ele>9.1</ele>
        <time>2026-08-07T13:38:07Z</time>
      </trkpt><trkpt lat="55.7399720" lon="8.1884160"><ele>9.1</ele>
        <time>2026-08-07T13:38:27Z</time>
      </trkpt><trkpt lat="55.7400810" lon="8.1884570"><ele>9.0</ele>
        <time>2026-08-07T13:38:44Z</time>
      </trkpt><trkpt lat="55.7401810" lon="8.1884320"><ele>9.0</ele>
        <time>2026-08-07T13:38:54Z</time>
      </trkpt><trkpt lat="55.7402630" lon="8.1883640"><ele>9.0</ele>
        <time>2026-08-07T13:39:02Z</time>
      </trkpt><trkpt lat="55.7403580" lon="8.1883430"><ele>8.9</ele>
        <time>2026-08-07T13:39:10Z</time>
      </trkpt><trkpt lat="55.7405430" lon="8.1882740"><ele>8.9</ele>
        <time>2026-08-07T13:39:26Z</time>
      </trkpt><trkpt lat="55.7407270" lon="8.1882710"><ele>8.9</ele>
        <time>2026-08-07T13:39:42Z</time>
      </trkpt><trkpt lat="55.7409150" lon="8.1882200"><ele>8.8</ele>
        <time>2026-08-07T13:39:59Z</time>
      </trkpt><trkpt lat="55.7411030" lon="8.1882230"><ele>8.8</ele>
        <time>2026-08-07T13:40:17Z</time>
      </trkpt><trkpt lat="55.7411710" lon="8.1883350"><ele>8.8</ele>
        <time>2026-08-07T13:40:24Z</time>
      </trkpt><trkpt lat="55.7412650" lon="8.1883620"><ele>8.8</ele>
        <time>2026-08-07T13:40:33Z</time>
      </trkpt><trkpt lat="55.7413550" lon="8.1883140"><ele>8.8</ele>
        <time>2026-08-07T13:40:43Z</time>
      </trkpt><trkpt lat="55.7415420" lon="8.1882830"><ele>8.7</ele>
        <time>2026-08-07T13:41:00Z</time>
      </trkpt><trkpt lat="55.7417130" lon="8.1881730"><ele>8.7</ele>
        <time>2026-08-07T13:41:30Z</time>
      </trkpt><trkpt lat="55.7418100" lon="8.1882240"><ele>8.7</ele>
        <time>2026-08-07T13:42:08Z</time>
      </trkpt><trkpt lat="55.7419050" lon="8.1881930"><ele>8.7</ele>
        <time>2026-08-07T13:42:16Z</time>
      </trkpt><trkpt lat="55.7420930" lon="8.1881470"><ele>8.7</ele>
        <time>2026-08-07T13:42:32Z</time>
      </trkpt><trkpt lat="55.7422760" lon="8.1880940"><ele>8.7</ele>
        <time>2026-08-07T13:42:52Z</time>
      </trkpt><trkpt lat="55.7424460" lon="8.1879730"><ele>8.7</ele>
        <time>2026-08-07T13:43:13Z</time>
      </trkpt><trkpt lat="55.7426220" lon="8.1878900"><ele>8.7</ele>
        <time>2026-08-07T13:43:30Z</time>
      </trkpt><trkpt lat="55.7427030" lon="8.1879750"><ele>8.7</ele>
        <time>2026-08-07T13:43:46Z</time>
      </trkpt><trkpt lat="55.7427710" lon="8.1880980"><ele>8.7</ele>
        <time>2026-08-07T13:44:49Z</time>
      </trkpt><trkpt lat="55.7428670" lon="8.1880920"><ele>8.7</ele>
        <time>2026-08-07T13:44:59Z</time>
      </trkpt><trkpt lat="55.7430590" lon="8.1880820"><ele>8.7</ele>
        <time>2026-08-07T13:45:16Z</time>
      </trkpt><trkpt lat="55.7432470" lon="8.1881120"><ele>8.7</ele>
        <time>2026-08-07T13:45:31Z</time>
      </trkpt><trkpt lat="55.7434370" lon="8.1881680"><ele>8.7</ele>
        <time>2026-08-07T13:45:50Z</time>
      </trkpt><trkpt lat="55.7435200" lon="8.1882640"><ele>8.7</ele>
        <time>2026-08-07T13:46:00Z</time>
      </trkpt><trkpt lat="55.7435600" lon="8.1884080"><ele>8.7</ele>
        <time>2026-08-07T13:46:09Z</time>
      </trkpt><trkpt lat="55.7436470" lon="8.1884520"><ele>8.7</ele>
        <time>2026-08-07T13:46:23Z</time>
      </trkpt><trkpt lat="55.7438360" lon="8.1885380"><ele>8.7</ele>
        <time>2026-08-07T13:46:47Z</time>
      </trkpt><trkpt lat="55.7439740" lon="8.1884390"><ele>8.7</ele>
        <time>2026-08-07T13:47:15Z</time>
      </trkpt><trkpt lat="55.7439520" lon="8.1882750"><ele>8.7</ele>
        <time>2026-08-07T13:47:25Z</time>
      </trkpt><trkpt lat="55.7439020" lon="8.1879510"><ele>8.7</ele>
        <time>2026-08-07T13:47:47Z</time>
      </trkpt><trkpt lat="55.7438980" lon="8.1877760"><ele>8.7</ele>
        <time>2026-08-07T13:47:59Z</time>
      </trkpt><trkpt lat="55.7438690" lon="8.1874520"><ele>8.7</ele>
        <time>2026-08-07T13:48:17Z</time>
      </trkpt><trkpt lat="55.7439620" lon="8.1872510"><ele>8.7</ele>
        <time>2026-08-07T13:48:37Z</time>
      </trkpt><trkpt lat="55.7440590" lon="8.1872170"><ele>8.7</ele>
        <time>2026-08-07T13:50:20Z</time>
      </trkpt><trkpt lat="55.7442360" lon="8.1871330"><ele>8.7</ele>
        <time>2026-08-07T13:50:39Z</time>
      </trkpt><trkpt lat="55.7443190" lon="8.1870370"><ele>8.8</ele>
        <time>2026-08-07T13:50:48Z</time>
      </trkpt><trkpt lat="55.7443620" lon="8.1868900"><ele>8.8</ele>
        <time>2026-08-07T13:50:56Z</time>
      </trkpt><trkpt lat="55.7444370" lon="8.1867910"><ele>8.8</ele>
        <time>2026-08-07T13:51:08Z</time>
      </trkpt><trkpt lat="55.7445270" lon="8.1868520"><ele>8.8</ele>
        <time>2026-08-07T13:51:17Z</time>
      </trkpt><trkpt lat="55.7446820" lon="8.1868000"><ele>8.8</ele>
        <time>2026-08-07T13:51:48Z</time>
      </trkpt><trkpt lat="55.7447540" lon="8.1867030"><ele>8.8</ele>
        <time>2026-08-07T13:51:59Z</time>
      </trkpt><trkpt lat="55.7448970" lon="8.1864650"><ele>8.8</ele>
        <time>2026-08-07T13:52:20Z</time>
      </trkpt><trkpt lat="55.7450130" lon="8.1862140"><ele>8.9</ele>
        <time>2026-08-07T13:52:36Z</time>
      </trkpt><trkpt lat="55.7451770" lon="8.1860110"><ele>8.9</ele>
        <time>2026-08-07T13:52:55Z</time>
      </trkpt><trkpt lat="55.7453520" lon="8.1858520"><ele>9.0</ele>
        <time>2026-08-07T13:53:14Z</time>
      </trkpt><trkpt lat="55.7455120" lon="8.1857020"><ele>9.1</ele>
        <time>2026-08-07T13:53:33Z</time>
      </trkpt><trkpt lat="55.7456100" lon="8.1857040"><ele>9.1</ele>
        <time>2026-08-07T13:53:41Z</time>
      </trkpt><trkpt lat="55.7457030" lon="8.1857570"><ele>9.1</ele>
        <time>2026-08-07T13:53:50Z</time>
      </trkpt><trkpt lat="55.7458850" lon="8.1858750"><ele>9.2</ele>
        <time>2026-08-07T13:54:07Z</time>
      </trkpt><trkpt lat="55.7459830" lon="8.1858630"><ele>9.2</ele>
        <time>2026-08-07T13:54:16Z</time>
      </trkpt><trkpt lat="55.7460710" lon="8.1857790"><ele>9.2</ele>
        <time>2026-08-07T13:54:25Z</time>
      </trkpt><trkpt lat="55.7462070" lon="8.1855470"><ele>9.3</ele>
        <time>2026-08-07T13:54:44Z</time>
      </trkpt><trkpt lat="55.7463370" lon="8.1853050"><ele>9.2</ele>
        <time>2026-08-07T13:55:01Z</time>
      </trkpt><trkpt lat="55.7464640" lon="8.1850490"><ele>9.2</ele>
        <time>2026-08-07T13:55:19Z</time>
      </trkpt><trkpt lat="55.7466350" lon="8.1849330"><ele>9.1</ele>
        <time>2026-08-07T13:55:38Z</time>
      </trkpt><trkpt lat="55.7467230" lon="8.1849870"><ele>9.1</ele>
        <time>2026-08-07T13:55:47Z</time>
      </trkpt><trkpt lat="55.7468100" lon="8.1848860"><ele>9.0</ele>
        <time>2026-08-07T13:55:56Z</time>
      </trkpt><trkpt lat="55.7469620" lon="8.1846700"><ele>8.9</ele>
        <time>2026-08-07T13:56:13Z</time>
      </trkpt><trkpt lat="55.7470940" lon="8.1844180"><ele>8.9</ele>
        <time>2026-08-07T13:56:29Z</time>
      </trkpt><trkpt lat="55.7472310" lon="8.1841640"><ele>8.8</ele>
        <time>2026-08-07T13:56:57Z</time>
      </trkpt><trkpt lat="55.7473420" lon="8.1838880"><ele>8.7</ele>
        <time>2026-08-07T13:57:14Z</time>
      </trkpt><trkpt lat="55.7474430" lon="8.1835950"><ele>8.7</ele>
        <time>2026-08-07T13:57:31Z</time>
      </trkpt><trkpt lat="55.7475490" lon="8.1833160"><ele>8.7</ele>
        <time>2026-08-07T13:57:49Z</time>
      </trkpt><trkpt lat="55.7476700" lon="8.1830180"><ele>8.8</ele>
        <time>2026-08-07T13:58:20Z</time>
      </trkpt><trkpt lat="55.7477840" lon="8.1827350"><ele>8.9</ele>
        <time>2026-08-07T13:58:58Z</time>
      </trkpt><trkpt lat="55.7478750" lon="8.1824390"><ele>8.9</ele>
        <time>2026-08-07T13:59:13Z</time>
      </trkpt><trkpt lat="55.7479630" lon="8.1821390"><ele>9.0</ele>
        <time>2026-08-07T13:59:30Z</time>
      </trkpt><trkpt lat="55.7480800" lon="8.1818680"><ele>9.1</ele>
        <time>2026-08-07T13:59:58Z</time>
      </trkpt><trkpt lat="55.7481770" lon="8.1815860"><ele>9.2</ele>
        <time>2026-08-07T14:00:17Z</time>
      </trkpt><trkpt lat="55.7482780" lon="8.1812950"><ele>9.3</ele>
        <time>2026-08-07T14:00:36Z</time>
      </trkpt><trkpt lat="55.7483550" lon="8.1809910"><ele>9.4</ele>
        <time>2026-08-07T14:00:53Z</time>
      </trkpt><trkpt lat="55.7484160" lon="8.1808690"><ele>9.4</ele>
        <time>2026-08-07T14:01:01Z</time>
      </trkpt><trkpt lat="55.7484550" lon="8.1807160"><ele>9.4</ele>
        <time>2026-08-07T14:01:09Z</time>
      </trkpt><trkpt lat="55.7485260" lon="8.1803940"><ele>9.4</ele>
        <time>2026-08-07T14:01:29Z</time>
      </trkpt><trkpt lat="55.7485720" lon="8.1800690"><ele>9.5</ele>
        <time>2026-08-07T14:01:51Z</time>
      </trkpt><trkpt lat="55.7485340" lon="8.1799220"><ele>9.5</ele>
        <time>2026-08-07T14:02:02Z</time>
      </trkpt><trkpt lat="55.7485250" lon="8.1796890"><ele>9.5</ele>
        <time>2026-08-07T14:02:42Z</time>
      </trkpt><trkpt lat="55.7484850" lon="8.1795400"><ele>9.5</ele>
        <time>2026-08-07T14:02:50Z</time>
      </trkpt><trkpt lat="55.7484710" lon="8.1793770"><ele>9.5</ele>
        <time>2026-08-07T14:02:58Z</time>
      </trkpt><trkpt lat="55.7485080" lon="8.1792190"><ele>9.5</ele>
        <time>2026-08-07T14:03:05Z</time>
      </trkpt><trkpt lat="55.7485960" lon="8.1789360"><ele>9.5</ele>
        <time>2026-08-07T14:03:26Z</time>
      </trkpt><trkpt lat="55.7486890" lon="8.1786380"><ele>9.5</ele>
        <time>2026-08-07T14:03:46Z</time>
      </trkpt><trkpt lat="55.7487850" lon="8.1783430"><ele>9.5</ele>
        <time>2026-08-07T14:04:25Z</time>
      </trkpt><trkpt lat="55.7488910" lon="8.1780450"><ele>9.5</ele>
        <time>2026-08-07T14:04:42Z</time>
      </trkpt><trkpt lat="55.7489680" lon="8.1779580"><ele>9.5</ele>
        <time>2026-08-07T14:05:00Z</time>
      </trkpt><trkpt lat="55.7490240" lon="8.1778310"><ele>9.6</ele>
        <time>2026-08-07T14:05:25Z</time>
      </trkpt><trkpt lat="55.7490480" lon="8.1776520"><ele>9.6</ele>
        <time>2026-08-07T14:05:34Z</time>
      </trkpt><trkpt lat="55.7491190" lon="8.1773350"><ele>9.7</ele>
        <time>2026-08-07T14:05:52Z</time>
      </trkpt><trkpt lat="55.7492010" lon="8.1771980"><ele>9.7</ele>
        <time>2026-08-07T14:06:21Z</time>
      </trkpt><trkpt lat="55.7492360" lon="8.1770490"><ele>9.7</ele>
        <time>2026-08-07T14:06:29Z</time>
      </trkpt><trkpt lat="55.7492530" lon="8.1768830"><ele>9.8</ele>
        <time>2026-08-07T14:06:37Z</time>
      </trkpt><trkpt lat="55.7492850" lon="8.1765550"><ele>9.8</ele>
        <time>2026-08-07T14:06:51Z</time>
      </trkpt><trkpt lat="55.7492810" lon="8.1763720"><ele>9.9</ele>
        <time>2026-08-07T14:06:57Z</time>
      </trkpt><trkpt lat="55.7492420" lon="8.1760340"><ele>9.9</ele>
        <time>2026-08-07T14:07:11Z</time>
      </trkpt><trkpt lat="55.7492290" lon="8.1757020"><ele>10.0</ele>
        <time>2026-08-07T14:07:25Z</time>
      </trkpt><trkpt lat="55.7492680" lon="8.1755470"><ele>10.0</ele>
        <time>2026-08-07T14:07:34Z</time>
      </trkpt><trkpt lat="55.7493290" lon="8.1752440"><ele>10.1</ele>
        <time>2026-08-07T14:08:20Z</time>
      </trkpt><trkpt lat="55.7493460" lon="8.1748930"><ele>10.0</ele>
        <time>2026-08-07T14:09:04Z</time>
      </trkpt><trkpt lat="55.7494250" lon="8.1749750"><ele>9.6</ele>
        <time>2026-08-07T14:10:55Z</time>
      </trkpt><trkpt lat="55.7495120" lon="8.1749060"><ele>9.2</ele>
        <time>2026-08-07T14:12:47Z</time>
      </trkpt><trkpt lat="55.7494920" lon="8.1747420"><ele>8.8</ele>
        <time>2026-08-07T14:12:57Z</time>
      </trkpt><trkpt lat="55.7495050" lon="8.1745320"><ele>8.4</ele>
        <time>2026-08-07T14:22:29Z</time>
      </trkpt><trkpt lat="55.7494840" lon="8.1743560"><ele>7.9</ele>
        <time>2026-08-07T14:22:39Z</time>
      </trkpt><trkpt lat="55.7494860" lon="8.1741890"><ele>7.6</ele>
        <time>2026-08-07T14:22:49Z</time>
      </trkpt><trkpt lat="55.7494520" lon="8.1738130"><ele>6.7</ele>
        <time>2026-08-07T14:23:30Z</time>
      </trkpt><trkpt lat="55.7494190" lon="8.1736060"><ele>6.2</ele>
        <time>2026-08-07T14:24:37Z</time>
      </trkpt><trkpt lat="55.7494070" lon="8.1732800"><ele>5.5</ele>
        <time>2026-08-07T14:26:25Z</time>
      </trkpt><trkpt lat="55.7493820" lon="8.1729560"><ele>4.7</ele>
        <time>2026-08-07T14:26:51Z</time>
      </trkpt><trkpt lat="55.7493450" lon="8.1727940"><ele>4.3</ele>
        <time>2026-08-07T14:27:05Z</time>
      </trkpt><trkpt lat="55.7492570" lon="8.1727420"><ele>3.9</ele>
        <time>2026-08-07T14:27:18Z</time>
      </trkpt><trkpt lat="55.7491830" lon="8.1726390"><ele>3.6</ele>
        <time>2026-08-07T14:27:36Z</time>
      </trkpt><trkpt lat="55.7491520" lon="8.1724740"><ele>3.2</ele>
        <time>2026-08-07T14:27:53Z</time>
      </trkpt><trkpt lat="55.7491500" lon="8.1723020"><ele>2.9</ele>
        <time>2026-08-07T14:28:09Z</time>
      </trkpt><trkpt lat="55.7491200" lon="8.1721450"><ele>2.8</ele>
        <time>2026-08-07T14:28:22Z</time>
      </trkpt><trkpt lat="55.7490330" lon="8.1722040"><ele>2.8</ele>
        <time>2026-08-07T14:39:53Z</time>
      </trkpt><trkpt lat="55.7488610" lon="8.1723050"><ele>2.8</ele>
        <time>2026-08-07T14:40:19Z</time>
      </trkpt><trkpt lat="55.7486950" lon="8.1724420"><ele>2.8</ele>
        <time>2026-08-07T14:47:49Z</time>
      </trkpt><trkpt lat="55.7484730" lon="8.1725660"><ele>2.7</ele>
        <time>2026-08-07T14:48:41Z</time>
      </trkpt><trkpt lat="55.7483840" lon="8.1725380"><ele>2.7</ele>
        <time>2026-08-07T14:48:52Z</time>
      </trkpt><trkpt lat="55.7482940" lon="8.1725530"><ele>2.7</ele>
        <time>2026-08-07T14:49:05Z</time>
      </trkpt><trkpt lat="55.7481950" lon="8.1725320"><ele>2.7</ele>
        <time>2026-08-07T14:49:16Z</time>
      </trkpt><trkpt lat="55.7480010" lon="8.1725370"><ele>2.6</ele>
        <time>2026-08-07T14:49:39Z</time>
      </trkpt><trkpt lat="55.7478100" lon="8.1725130"><ele>2.6</ele>
        <time>2026-08-07T14:50:06Z</time>
      </trkpt><trkpt lat="55.7476280" lon="8.1725080"><ele>2.5</ele>
        <time>2026-08-07T14:50:33Z</time>
      </trkpt><trkpt lat="55.7474410" lon="8.1725070"><ele>2.5</ele>
        <time>2026-08-07T14:50:55Z</time>
      </trkpt><trkpt lat="55.7472550" lon="8.1725040"><ele>2.6</ele>
        <time>2026-08-07T14:51:18Z</time>
      </trkpt><trkpt lat="55.7470720" lon="8.1725240"><ele>2.7</ele>
        <time>2026-08-07T14:51:41Z</time>
      </trkpt><trkpt lat="55.7468800" lon="8.1725700"><ele>2.8</ele>
        <time>2026-08-07T14:52:02Z</time>
      </trkpt><trkpt lat="55.7466880" lon="8.1726290"><ele>2.9</ele>
        <time>2026-08-07T14:52:23Z</time>
      </trkpt><trkpt lat="55.7464950" lon="8.1726620"><ele>2.9</ele>
        <time>2026-08-07T14:52:41Z</time>
      </trkpt><trkpt lat="55.7463090" lon="8.1726650"><ele>3.0</ele>
        <time>2026-08-07T14:53:02Z</time>
      </trkpt><trkpt lat="55.7461190" lon="8.1726610"><ele>3.1</ele>
        <time>2026-08-07T14:53:25Z</time>
      </trkpt><trkpt lat="55.7460320" lon="8.1726040"><ele>3.1</ele>
        <time>2026-08-07T14:53:47Z</time>
      </trkpt><trkpt lat="55.7458530" lon="8.1725500"><ele>3.2</ele>
        <time>2026-08-07T14:54:44Z</time>
      </trkpt><trkpt lat="55.7457630" lon="8.1725600"><ele>3.2</ele>
        <time>2026-08-07T14:55:02Z</time>
      </trkpt><trkpt lat="55.7455820" lon="8.1726320"><ele>3.7</ele>
        <time>2026-08-07T14:55:42Z</time>
      </trkpt><trkpt lat="55.7454050" lon="8.1727380"><ele>4.3</ele>
        <time>2026-08-07T14:56:20Z</time>
      </trkpt><trkpt lat="55.7452270" lon="8.1728460"><ele>4.8</ele>
        <time>2026-08-07T14:56:48Z</time>
      </trkpt><trkpt lat="55.7450490" lon="8.1729360"><ele>5.4</ele>
        <time>2026-08-07T14:57:16Z</time>
      </trkpt><trkpt lat="55.7448770" lon="8.1730560"><ele>6.0</ele>
        <time>2026-08-07T14:57:49Z</time>
      </trkpt><trkpt lat="55.7447180" lon="8.1732230"><ele>6.5</ele>
        <time>2026-08-07T14:58:23Z</time>
      </trkpt><trkpt lat="55.7445630" lon="8.1734050"><ele>7.1</ele>
        <time>2026-08-07T14:58:57Z</time>
      </trkpt><trkpt lat="55.7444380" lon="8.1736320"><ele>7.7</ele>
        <time>2026-08-07T15:00:24Z</time>
      </trkpt><trkpt lat="55.7443880" lon="8.1739360"><ele>8.2</ele>
        <time>2026-08-07T15:01:12Z</time>
      </trkpt><trkpt lat="55.7442890" lon="8.1742330"><ele>8.8</ele>
        <time>2026-08-07T15:01:32Z</time>
      </trkpt><trkpt lat="55.7442590" lon="8.1743960"><ele>9.0</ele>
        <time>2026-08-07T15:02:29Z</time>
      </trkpt><trkpt lat="55.7442050" lon="8.1745420"><ele>9.2</ele>
        <time>2026-08-07T15:02:37Z</time>
      </trkpt><trkpt lat="55.7441280" lon="8.1748790"><ele>9.6</ele>
        <time>2026-08-07T15:02:53Z</time>
      </trkpt><trkpt lat="55.7441380" lon="8.1750540"><ele>9.8</ele>
        <time>2026-08-07T15:03:01Z</time>
      </trkpt><trkpt lat="55.7440860" lon="8.1753790"><ele>10.1</ele>
        <time>2026-08-07T15:03:18Z</time>
      </trkpt><trkpt lat="55.7439990" lon="8.1754150"><ele>10.3</ele>
        <time>2026-08-07T15:03:25Z</time>
      </trkpt><trkpt lat="55.7438070" lon="8.1754080"><ele>10.7</ele>
        <time>2026-08-07T15:03:39Z</time>
      </trkpt><trkpt lat="55.7436180" lon="8.1753540"><ele>11.0</ele>
        <time>2026-08-07T15:03:53Z</time>
      </trkpt><trkpt lat="55.7434240" lon="8.1753020"><ele>11.4</ele>
        <time>2026-08-07T15:04:06Z</time>
      </trkpt><trkpt lat="55.7433310" lon="8.1752330"><ele>11.6</ele>
        <time>2026-08-07T15:04:13Z</time>
      </trkpt><trkpt lat="55.7431380" lon="8.1751710"><ele>12.0</ele>
        <time>2026-08-07T15:04:26Z</time>
      </trkpt><trkpt lat="55.7430410" lon="8.1751940"><ele>12.1</ele>
        <time>2026-08-07T15:04:34Z</time>
      </trkpt><trkpt lat="55.7429490" lon="8.1752630"><ele>12.2</ele>
        <time>2026-08-07T15:04:41Z</time>
      </trkpt><trkpt lat="55.7428760" lon="8.1753880"><ele>12.1</ele>
        <time>2026-08-07T15:04:48Z</time>
      </trkpt><trkpt lat="55.7427910" lon="8.1754810"><ele>12.1</ele>
        <time>2026-08-07T15:04:55Z</time>
      </trkpt><trkpt lat="55.7426250" lon="8.1756670"><ele>12.0</ele>
        <time>2026-08-07T15:05:08Z</time>
      </trkpt><trkpt lat="55.7424490" lon="8.1758560"><ele>11.9</ele>
        <time>2026-08-07T15:05:22Z</time>
      </trkpt><trkpt lat="55.7422720" lon="8.1759920"><ele>11.8</ele>
        <time>2026-08-07T15:05:35Z</time>
      </trkpt><trkpt lat="55.7421000" lon="8.1761640"><ele>11.7</ele>
        <time>2026-08-07T15:05:47Z</time>
      </trkpt><trkpt lat="55.7419420" lon="8.1763510"><ele>11.6</ele>
        <time>2026-08-07T15:05:59Z</time>
      </trkpt><trkpt lat="55.7417710" lon="8.1765360"><ele>11.5</ele>
        <time>2026-08-07T15:06:11Z</time>
      </trkpt><trkpt lat="55.7416030" lon="8.1766920"><ele>11.4</ele>
        <time>2026-08-07T15:06:24Z</time>
      </trkpt><trkpt lat="55.7414560" lon="8.1768850"><ele>11.3</ele>
        <time>2026-08-07T15:06:36Z</time>
      </trkpt><trkpt lat="55.7412910" lon="8.1770500"><ele>11.0</ele>
        <time>2026-08-07T15:06:48Z</time>
      </trkpt><trkpt lat="55.7411330" lon="8.1772400"><ele>10.7</ele>
        <time>2026-08-07T15:07:00Z</time>
      </trkpt><trkpt lat="55.7409810" lon="8.1774540"><ele>10.4</ele>
        <time>2026-08-07T15:07:12Z</time>
      </trkpt><trkpt lat="55.7408350" lon="8.1776700"><ele>10.0</ele>
        <time>2026-08-07T15:07:24Z</time>
      </trkpt><trkpt lat="55.7406890" lon="8.1778690"><ele>9.7</ele>
        <time>2026-08-07T15:07:36Z</time>
      </trkpt><trkpt lat="55.7405310" lon="8.1781080"><ele>9.4</ele>
        <time>2026-08-07T15:07:50Z</time>
      </trkpt><trkpt lat="55.7403750" lon="8.1783330"><ele>9.1</ele>
        <time>2026-08-07T15:08:04Z</time>
      </trkpt><trkpt lat="55.7402240" lon="8.1785440"><ele>8.8</ele>
        <time>2026-08-07T15:08:15Z</time>
      </trkpt><trkpt lat="55.7400630" lon="8.1787630"><ele>8.4</ele>
        <time>2026-08-07T15:08:29Z</time>
      </trkpt><trkpt lat="55.7400090" lon="8.1789120"><ele>8.4</ele>
        <time>2026-08-07T15:08:36Z</time>
      </trkpt><trkpt lat="55.7399000" lon="8.1792090"><ele>8.3</ele>
        <time>2026-08-07T15:08:51Z</time>
      </trkpt><trkpt lat="55.7397800" lon="8.1794910"><ele>8.3</ele>
        <time>2026-08-07T15:09:04Z</time>
      </trkpt><trkpt lat="55.7396780" lon="8.1797810"><ele>8.3</ele>
        <time>2026-08-07T15:09:17Z</time>
      </trkpt><trkpt lat="55.7395790" lon="8.1800690"><ele>8.2</ele>
        <time>2026-08-07T15:09:30Z</time>
      </trkpt><trkpt lat="55.7394780" lon="8.1803530"><ele>8.2</ele>
        <time>2026-08-07T15:09:42Z</time>
      </trkpt><trkpt lat="55.7394120" lon="8.1804720"><ele>8.1</ele>
        <time>2026-08-07T15:09:48Z</time>
      </trkpt><trkpt lat="55.7393040" lon="8.1807500"><ele>8.1</ele>
        <time>2026-08-07T15:10:00Z</time>
      </trkpt><trkpt lat="55.7391990" lon="8.1810370"><ele>8.1</ele>
        <time>2026-08-07T15:10:13Z</time>
      </trkpt><trkpt lat="55.7390900" lon="8.1813100"><ele>8.0</ele>
        <time>2026-08-07T15:10:25Z</time>
      </trkpt><trkpt lat="55.7389770" lon="8.1815930"><ele>8.0</ele>
        <time>2026-08-07T15:10:38Z</time>
      </trkpt><trkpt lat="55.7388480" lon="8.1818730"><ele>8.0</ele>
        <time>2026-08-07T15:10:52Z</time>
      </trkpt><trkpt lat="55.7387530" lon="8.1821940"><ele>8.0</ele>
        <time>2026-08-07T15:11:06Z</time>
      </trkpt><trkpt lat="55.7386880" lon="8.1823090"><ele>8.0</ele>
        <time>2026-08-07T15:11:12Z</time>
      </trkpt><trkpt lat="55.7385660" lon="8.1825900"><ele>8.0</ele>
        <time>2026-08-07T15:11:26Z</time>
      </trkpt><trkpt lat="55.7384960" lon="8.1826950"><ele>8.0</ele>
        <time>2026-08-07T15:11:32Z</time>
      </trkpt><trkpt lat="55.7384380" lon="8.1828330"><ele>8.0</ele>
        <time>2026-08-07T15:11:38Z</time>
      </trkpt><trkpt lat="55.7383180" lon="8.1831050"><ele>8.0</ele>
        <time>2026-08-07T15:11:51Z</time>
      </trkpt><trkpt lat="55.7381890" lon="8.1833730"><ele>8.0</ele>
        <time>2026-08-07T15:12:04Z</time>
      </trkpt><trkpt lat="55.7380520" lon="8.1836260"><ele>8.0</ele>
        <time>2026-08-07T15:12:17Z</time>
      </trkpt><trkpt lat="55.7379020" lon="8.1838390"><ele>8.0</ele>
        <time>2026-08-07T15:12:29Z</time>
      </trkpt><trkpt lat="55.7377460" lon="8.1840780"><ele>8.0</ele>
        <time>2026-08-07T15:12:43Z</time>
      </trkpt><trkpt lat="55.7376100" lon="8.1843060"><ele>8.0</ele>
        <time>2026-08-07T15:12:56Z</time>
      </trkpt><trkpt lat="55.7375380" lon="8.1844500"><ele>8.0</ele>
        <time>2026-08-07T15:13:04Z</time>
      </trkpt><trkpt lat="55.7374550" lon="8.1845410"><ele>8.0</ele>
        <time>2026-08-07T15:13:11Z</time>
      </trkpt><trkpt lat="55.7373130" lon="8.1847480"><ele>8.0</ele>
        <time>2026-08-07T15:13:23Z</time>
      </trkpt><trkpt lat="55.7372530" lon="8.1848900"><ele>8.0</ele>
        <time>2026-08-07T15:13:29Z</time>
      </trkpt></trkseg>
  </trk>
</gpx>